Weather at Greenville Downtown Airport

Public forecast

Using degrees Fahrenheit for public forecast. Weather courtesy of forecast.io.

Current aviation weather report (METAR) for Greenville Downtown Airport

Retrieved 2020/11/28 15:53 UTC (17 minutes ago):

KGMU 281553Z 04006KT 10SM CLR 18/07 A3011 RMK AO2 SLP192 T01780067

Aviation forecast (TAF) for Greenville Downtown Airport

Retrieved 2020/11/28 12:34 UTC (4 hours ago):

TAF KGMU 281132Z 2812/2912 VRB02KT P6SM BKN090 FM281400 03005KT P6SM FEW250 FM281800 04005KT P6SM SKC FM282300 06004KT P6SM SKC FM291000 04004KT P6SM SCT050 BKN250